createdAt,value
2022-12-18T00:01:44.531Z,19.83
2022-12-18T00:04:23.996Z,23.53
2022-12-18T00:06:50.648Z,20.87
2022-12-18T00:09:17.141Z,23.13
2022-12-18T00:11:43.748Z,21.77
2022-12-18T00:14:10.386Z,21.27
2022-12-18T00:16:38.046Z,20.90
2022-12-18T00:19:04.819Z,21.40
2022-12-18T00:21:31.640Z,24.13
2022-12-18T00:23:58.221Z,24.50
2022-12-18T00:26:34.257Z,23.87
2022-12-18T00:29:01.228Z,21.90
2022-12-18T00:31:28.404Z,21.47
2022-12-18T00:33:55.995Z,20.90
2022-12-18T00:36:23.613Z,19.53
2022-12-18T00:38:50.133Z,21.00
2022-12-18T00:41:35.305Z,21.20
2022-12-18T00:44:01.993Z,19.67
2022-12-18T00:46:28.483Z,21.17
2022-12-18T00:48:55.023Z,21.23
2022-12-18T00:51:21.610Z,21.73
2022-12-18T00:53:48.050Z,22.73
2022-12-18T00:56:14.576Z,22.60
2022-12-18T00:58:40.990Z,24.97
2022-12-18T01:01:07.817Z,25.20
2022-12-18T01:03:34.255Z,24.73
2022-12-18T01:06:00.722Z,22.77
2022-12-18T01:08:27.296Z,23.70
2022-12-18T01:10:53.758Z,22.07
2022-12-18T01:13:20.228Z,22.70
2022-12-18T01:15:52.874Z,23.40
2022-12-18T01:18:19.483Z,23.30
2022-12-18T01:20:45.993Z,22.40
2022-12-18T01:23:12.473Z,21.87
2022-12-18T01:25:39.091Z,22.30
2022-12-18T01:28:05.754Z,22.77
2022-12-18T01:30:32.195Z,22.00
2022-12-18T01:32:58.709Z,23.23
2022-12-18T01:35:25.166Z,23.10
2022-12-18T01:37:55.012Z,21.70
2022-12-18T01:40:21.549Z,22.43
2022-12-18T01:42:54.230Z,22.53
2022-12-18T01:45:30.565Z,23.13
2022-12-18T01:47:57.213Z,22.00
2022-12-18T01:50:25.146Z,23.10
2022-12-18T01:52:55.367Z,23.13
2022-12-18T01:55:22.930Z,23.03
2022-12-18T01:57:49.368Z,23.13
2022-12-18T02:00:16.774Z,21.53
2022-12-18T02:02:43.477Z,21.60
2022-12-18T02:05:10.356Z,21.10
2022-12-18T02:07:50.565Z,20.10
2022-12-18T02:10:20.609Z,21.40
2022-12-18T02:13:02.548Z,21.13
2022-12-18T02:15:32.167Z,20.20
2022-12-18T02:17:59.640Z,22.95
2022-12-18T02:20:36.496Z,20.77
2022-12-18T02:23:02.906Z,20.70
2022-12-18T02:25:35.410Z,21.40
2022-12-18T02:28:02.742Z,19.87
2022-12-18T02:30:30.377Z,20.30
2022-12-18T02:32:56.866Z,20.43
2022-12-18T02:35:24.956Z,22.27
2022-12-18T02:37:51.383Z,21.57
2022-12-18T02:40:17.917Z,22.83
2022-12-18T02:42:44.378Z,23.17
2022-12-18T02:45:11.108Z,21.67
2022-12-18T02:47:38.128Z,22.90
2022-12-18T02:50:04.632Z,22.60
2022-12-18T02:52:31.097Z,22.23
2022-12-18T02:55:10.017Z,22.87
2022-12-18T02:57:56.829Z,23.43
2022-12-18T03:00:34.509Z,23.10
2022-12-18T03:03:05.414Z,24.93
2022-12-18T03:05:39.888Z,23.17
2022-12-18T03:08:11.376Z,22.97
2022-12-18T03:10:41.260Z,23.87
2022-12-18T03:13:11.876Z,24.63
2022-12-18T03:15:38.993Z,22.90
2022-12-18T03:18:06.487Z,25.43
2022-12-18T03:20:33.212Z,23.60
2022-12-18T03:23:02.291Z,23.40
2022-12-18T03:25:28.731Z,25.60
2022-12-18T03:27:56.099Z,26.40
2022-12-18T03:30:22.550Z,25.57
2022-12-18T03:32:52.742Z,26.37
2022-12-18T03:35:22.703Z,23.47
2022-12-18T03:37:49.157Z,25.33
2022-12-18T03:40:15.683Z,24.40
2022-12-18T03:42:42.148Z,24.47
2022-12-18T03:45:09.125Z,24.70
2022-12-18T03:47:45.146Z,24.60
2022-12-18T03:50:12.976Z,25.03
2022-12-18T03:52:41.926Z,26.33
2022-12-18T03:55:08.375Z,25.27
2022-12-18T03:57:35.150Z,25.83
2022-12-18T04:00:02.742Z,24.37
2022-12-18T04:02:31.102Z,24.43
2022-12-18T04:04:58.262Z,24.93
2022-12-18T04:07:24.746Z,24.93
2022-12-18T04:09:51.458Z,25.20
2022-12-18T04:12:17.936Z,23.07
2022-12-18T04:14:44.377Z,24.57
2022-12-18T04:17:10.881Z,25.33
2022-12-18T04:19:37.471Z,24.37
2022-12-18T04:22:03.943Z,22.73
2022-12-18T04:24:30.398Z,24.53
2022-12-18T04:26:56.846Z,26.20
2022-12-18T04:29:23.306Z,25.17
2022-12-18T04:31:49.730Z,24.90
2022-12-18T04:34:16.290Z,25.33
2022-12-18T04:36:42.741Z,25.17
2022-12-18T04:39:09.184Z,26.77
2022-12-18T04:41:35.607Z,26.30
2022-12-18T04:44:02.174Z,27.93
2022-12-18T04:46:28.699Z,26.27
2022-12-18T04:48:55.351Z,25.60
2022-12-18T04:51:26.357Z,27.53
2022-12-18T04:53:53.447Z,27.07
2022-12-18T04:56:19.899Z,28.27
2022-12-18T04:58:46.434Z,26.90
2022-12-18T05:01:15.466Z,28.87
2022-12-18T05:03:42.525Z,26.20
2022-12-18T05:06:09.365Z,27.77
2022-12-18T05:08:35.959Z,28.30
2022-12-18T05:11:03.120Z,27.33
2022-12-18T05:13:29.691Z,27.63
2022-12-18T05:15:56.246Z,29.20
2022-12-18T05:18:23.508Z,28.53
2022-12-18T05:20:50.511Z,29.57
2022-12-18T05:23:16.986Z,31.37
2022-12-18T05:25:43.469Z,27.93
2022-12-18T05:28:09.904Z,30.27
2022-12-18T05:30:36.367Z,30.47
2022-12-18T05:33:02.794Z,29.23
2022-12-18T05:35:29.264Z,29.63
2022-12-18T05:37:56.203Z,31.47
2022-12-18T05:40:22.642Z,28.03
2022-12-18T05:42:49.073Z,27.93
2022-12-18T05:45:15.682Z,28.67
2022-12-18T05:47:42.155Z,30.60
2022-12-18T05:50:08.744Z,29.47
2022-12-18T05:52:35.365Z,28.23
2022-12-18T05:55:01.800Z,28.93
2022-12-18T05:57:28.281Z,31.13
2022-12-18T05:59:54.798Z,31.87
2022-12-18T06:02:22.183Z,33.33
2022-12-18T06:04:48.727Z,32.57
2022-12-18T06:07:15.212Z,32.57
2022-12-18T06:09:41.658Z,31.37
2022-12-18T06:12:08.169Z,30.70
2022-12-18T06:14:34.630Z,32.67
2022-12-18T06:17:01.093Z,35.87
2022-12-18T06:19:27.511Z,37.93
2022-12-18T06:21:54.243Z,34.77
2022-12-18T06:24:20.674Z,36.97
2022-12-18T06:26:47.141Z,36.70
2022-12-18T06:29:13.678Z,35.90
2022-12-18T06:31:41.052Z,34.57
2022-12-18T06:34:07.551Z,35.87
2022-12-18T06:36:33.998Z,35.00
2022-12-18T06:39:00.563Z,34.33
2022-12-18T06:41:27.065Z,35.43
2022-12-18T06:43:58.180Z,33.97
2022-12-18T06:46:26.154Z,32.73
2022-12-18T06:48:52.629Z,35.10
2022-12-18T06:51:22.592Z,33.60
2022-12-18T06:53:49.322Z,33.87
2022-12-18T06:56:15.839Z,33.20
2022-12-18T06:58:42.309Z,35.30
2022-12-18T07:01:09.648Z,35.03
2022-12-18T07:03:36.320Z,33.43
2022-12-18T07:06:02.874Z,32.73
2022-12-18T07:08:29.962Z,33.10
2022-12-18T07:10:56.650Z,35.20
2022-12-18T07:13:23.304Z,32.53
2022-12-18T07:15:49.970Z,34.27
2022-12-18T07:18:16.495Z,34.07
2022-12-18T07:20:43.021Z,34.37
2022-12-18T07:23:09.506Z,36.17
2022-12-18T07:25:36.325Z,35.13
2022-12-18T07:28:02.858Z,33.90
2022-12-18T07:30:29.914Z,36.27
2022-12-18T07:32:56.500Z,34.23
2022-12-18T07:35:25.220Z,33.90
2022-12-18T07:37:52.356Z,35.17
2022-12-18T07:40:18.891Z,36.03
2022-12-18T07:42:45.384Z,34.37
2022-12-18T07:45:12.046Z,37.00
2022-12-18T07:47:38.709Z,35.03
2022-12-18T07:50:05.755Z,33.93
2022-12-18T07:52:32.290Z,34.23
2022-12-18T07:54:59.559Z,34.93
2022-12-18T08:00:13.402Z,34.93
2022-12-18T08:02:40.040Z,34.00
2022-12-18T08:05:06.678Z,33.97
2022-12-18T08:07:33.932Z,34.27
2022-12-18T08:10:00.361Z,33.67
2022-12-18T08:12:26.898Z,32.77
2022-12-18T08:14:53.359Z,35.00
2022-12-18T08:17:20.487Z,35.47
2022-12-18T08:19:46.976Z,43.60
2022-12-18T08:22:13.452Z,39.67
2022-12-18T08:24:39.893Z,43.03
2022-12-18T08:27:28.418Z,36.37
2022-12-18T08:29:52.829Z,35.83
2022-12-18T08:32:19.311Z,38.20
2022-12-18T08:34:45.827Z,35.17
2022-12-18T08:37:12.364Z,37.83
2022-12-18T08:39:38.851Z,36.97
2022-12-18T08:42:24.022Z,36.07
2022-12-18T08:44:50.481Z,35.43
2022-12-18T08:47:17.012Z,35.70
2022-12-18T08:49:43.576Z,33.93
2022-12-18T08:52:10.035Z,34.77
2022-12-18T08:54:36.496Z,34.03
2022-12-18T08:57:03.283Z,33.43
2022-12-18T08:59:30.079Z,33.00
2022-12-18T09:01:56.789Z,33.83
2022-12-18T09:04:23.377Z,36.33
2022-12-18T09:06:49.953Z,34.37
2022-12-18T09:09:16.406Z,32.50
2022-12-18T09:11:42.881Z,32.60
2022-12-18T09:14:09.651Z,32.40
2022-12-18T09:16:36.660Z,34.27
2022-12-18T09:19:03.879Z,33.40
2022-12-18T09:21:36.765Z,35.60
2022-12-18T09:24:04.381Z,31.90
2022-12-18T09:26:34.202Z,30.33
2022-12-18T09:29:02.165Z,30.40
2022-12-18T09:31:29.207Z,31.67
2022-12-18T09:33:56.481Z,30.30
2022-12-18T09:36:22.962Z,29.60
2022-12-18T09:38:49.469Z,31.37
2022-12-18T09:41:34.919Z,26.60
2022-12-18T09:44:24.812Z,27.90
2022-12-18T09:46:57.495Z,27.63
2022-12-18T09:49:24.721Z,30.00
2022-12-18T09:51:52.401Z,29.50
2022-12-18T09:54:27.218Z,30.10
2022-12-18T09:56:54.411Z,27.70
2022-12-18T09:59:20.851Z,30.13
2022-12-18T10:01:47.616Z,27.67
2022-12-18T10:04:14.334Z,26.00
2022-12-18T10:06:44.094Z,26.80
2022-12-18T10:09:16.792Z,26.50
2022-12-18T10:11:49.562Z,28.30
2022-12-18T10:14:24.774Z,27.50
2022-12-18T10:16:57.334Z,26.73
2022-12-18T10:19:23.777Z,27.20
2022-12-18T10:21:52.844Z,27.93
2022-12-18T10:24:25.523Z,26.77
2022-12-18T10:26:52.412Z,26.97
2022-12-18T10:29:18.913Z,28.00
2022-12-18T10:31:45.432Z,27.87
2022-12-18T10:34:12.450Z,27.93
2022-12-18T10:36:39.052Z,29.07
2022-12-18T10:39:15.291Z,33.73
2022-12-18T10:41:41.820Z,30.60
2022-12-18T10:44:23.732Z,28.70
2022-12-18T10:46:57.090Z,26.03
2022-12-18T10:49:27.593Z,26.33
2022-12-18T10:52:14.304Z,23.93
2022-12-18T10:54:40.802Z,23.63
2022-12-18T10:57:37.061Z,23.53
2022-12-18T11:00:23.012Z,23.13
2022-12-18T11:02:49.611Z,22.43
2022-12-18T11:05:30.600Z,21.93
2022-12-18T11:07:57.342Z,24.27
2022-12-18T11:10:28.417Z,24.77
2022-12-18T11:12:56.138Z,24.53
2022-12-18T11:15:24.593Z,22.37
2022-12-18T11:17:51.262Z,24.10
2022-12-18T11:20:38.179Z,24.03
2022-12-18T11:23:06.752Z,23.47
2022-12-18T11:25:35.128Z,24.40
2022-12-18T11:28:06.295Z,26.07
2022-12-18T11:30:36.760Z,24.53
2022-12-18T11:33:14.370Z,26.97
2022-12-18T11:35:43.936Z,24.03
2022-12-18T11:38:17.062Z,23.60
2022-12-18T11:40:44.559Z,21.77
2022-12-18T11:43:12.407Z,18.47
2022-12-18T11:45:44.290Z,17.47
2022-12-18T11:48:16.867Z,17.70
2022-12-18T11:50:49.177Z,18.10
2022-12-18T11:53:15.672Z,23.53
2022-12-18T11:55:48.612Z,21.50
2022-12-18T11:58:44.810Z,19.13
2022-12-18T12:01:17.813Z,17.47
2022-12-18T12:03:47.463Z,17.27
2022-12-18T12:06:17.338Z,16.77
2022-12-18T12:09:02.823Z,16.93
2022-12-18T12:11:38.843Z,15.33
2022-12-18T12:14:15.745Z,15.97
2022-12-18T12:16:45.251Z,17.60
2022-12-18T12:19:26.834Z,16.90
2022-12-18T12:21:55.560Z,15.90
2022-12-18T12:24:28.591Z,15.57
2022-12-18T12:26:55.064Z,16.43
2022-12-18T12:29:24.534Z,17.10
2022-12-18T12:31:54.173Z,17.00
2022-12-18T12:34:28.472Z,16.70
2022-12-18T12:36:58.008Z,15.87
2022-12-18T12:39:30.333Z,14.80
2022-12-18T12:42:15.515Z,15.83
2022-12-18T12:44:56.256Z,15.30
2022-12-18T12:47:28.013Z,14.20
2022-12-18T12:49:55.005Z,14.67
2022-12-18T12:52:33.700Z,15.67
2022-12-18T12:55:00.234Z,16.27
2022-12-18T12:57:35.126Z,15.87
2022-12-18T13:00:04.683Z,17.80
2022-12-18T13:02:37.421Z,14.80
2022-12-18T13:05:23.115Z,15.67
2022-12-18T13:07:58.610Z,16.37
2022-12-18T13:10:35.781Z,15.07
2022-12-18T13:13:04.905Z,15.30
2022-12-18T13:15:38.600Z,15.80
2022-12-18T13:18:09.772Z,15.20
2022-12-18T13:20:37.241Z,16.00
2022-12-18T13:23:22.736Z,17.00
2022-12-18T13:25:49.396Z,16.77
2022-12-18T13:28:16.897Z,17.43
2022-12-18T13:30:44.263Z,17.77
2022-12-18T13:33:21.019Z,18.10
2022-12-18T13:35:47.715Z,18.70
2022-12-18T13:38:24.127Z,20.47
2022-12-18T13:40:50.545Z,21.87
2022-12-18T13:43:22.902Z,21.43
2022-12-18T13:45:55.680Z,22.30
2022-12-18T13:48:23.557Z,21.37
2022-12-18T13:50:50.710Z,22.50
2022-12-18T13:53:25.805Z,22.50
2022-12-18T13:55:52.440Z,22.23
2022-12-18T13:58:19.062Z,20.37
2022-12-18T14:00:45.577Z,19.47
2022-12-18T14:03:21.797Z,21.37
2022-12-18T14:05:53.232Z,22.90
2022-12-18T14:08:19.727Z,21.83
2022-12-18T14:10:49.746Z,23.40
2022-12-18T14:13:24.258Z,23.60
2022-12-18T14:15:50.708Z,23.87
2022-12-18T14:18:23.458Z,22.60
2022-12-18T14:20:52.875Z,23.83
2022-12-18T14:23:28.833Z,22.80
2022-12-18T14:25:57.012Z,22.90
2022-12-18T14:28:25.130Z,22.77
2022-12-18T14:30:51.720Z,25.57
2022-12-18T14:33:22.550Z,24.87
2022-12-18T14:35:56.222Z,26.30
2022-12-18T14:38:24.501Z,28.87
2022-12-18T14:41:07.030Z,30.33
2022-12-18T14:43:34.326Z,30.83
2022-12-18T14:46:00.823Z,32.17
2022-12-18T14:48:27.458Z,31.33
2022-12-18T14:50:58.136Z,32.63
2022-12-18T14:53:33.088Z,30.87
2022-12-18T14:55:59.531Z,37.30
2022-12-18T14:58:26.042Z,50.50
2022-12-18T15:00:53.862Z,49.87
2022-12-18T15:03:21.763Z,51.13
2022-12-18T15:05:48.513Z,62.60
2022-12-18T15:08:26.018Z,51.67
2022-12-18T15:10:52.447Z,51.10
2022-12-18T15:13:21.991Z,39.13
2022-12-18T15:15:48.931Z,40.93
2022-12-18T15:18:16.302Z,39.20
2022-12-18T15:20:45.828Z,46.87
2022-12-18T15:23:16.415Z,43.53
2022-12-18T15:25:43.596Z,34.57
2022-12-18T15:28:28.916Z,31.37
2022-12-18T15:30:59.398Z,35.13
2022-12-18T15:33:26.973Z,33.20
2022-12-18T15:35:57.332Z,35.27
2022-12-18T15:38:23.759Z,36.03
2022-12-18T15:40:50.300Z,40.80
2022-12-18T15:43:35.152Z,41.80
2022-12-18T15:46:02.578Z,45.00
2022-12-18T15:48:29.162Z,42.87
2022-12-18T15:50:57.806Z,44.23
2022-12-18T15:53:24.574Z,43.97
2022-12-18T15:56:09.691Z,42.73
2022-12-18T15:58:36.973Z,44.93
2022-12-18T16:01:03.581Z,45.23
2022-12-18T16:03:30.182Z,45.47
2022-12-18T16:05:56.925Z,46.53
2022-12-18T16:08:24.847Z,45.67
2022-12-18T16:10:51.292Z,45.03
2022-12-18T16:13:17.928Z,45.90
2022-12-18T16:15:44.416Z,41.53
2022-12-18T16:18:10.902Z,39.50
2022-12-18T16:20:37.362Z,44.77
2022-12-18T16:23:03.811Z,44.10
2022-12-18T16:25:30.289Z,44.40
2022-12-18T16:27:57.069Z,43.70
2022-12-18T16:30:28.868Z,44.40
2022-12-18T16:32:59.304Z,43.20
2022-12-18T16:35:25.993Z,44.07
2022-12-18T16:37:52.454Z,43.33
2022-12-18T16:40:19.067Z,46.17
2022-12-18T16:42:46.056Z,46.20
2022-12-18T16:45:13.979Z,46.00
2022-12-18T16:47:40.619Z,45.33
2022-12-18T16:50:07.561Z,45.90
2022-12-18T16:52:34.267Z,44.93
2022-12-18T16:55:00.838Z,44.57
2022-12-18T16:57:27.354Z,44.90
2022-12-18T16:59:53.843Z,42.73
2022-12-18T17:02:23.901Z,46.20
2022-12-18T17:04:53.206Z,44.00
2022-12-18T17:07:19.695Z,44.93
2022-12-18T17:09:46.295Z,44.83
2022-12-18T17:12:13.470Z,42.33
2022-12-18T17:14:40.350Z,40.93
2022-12-18T17:17:20.766Z,43.80
2022-12-18T17:19:48.263Z,43.03
2022-12-18T17:22:14.809Z,50.47
2022-12-18T17:24:41.371Z,47.90
2022-12-18T17:27:09.108Z,48.63
2022-12-18T17:29:35.728Z,48.93
2022-12-18T17:32:02.374Z,49.43
2022-12-18T17:34:29.992Z,52.40
2022-12-18T17:36:57.391Z,48.57
2022-12-18T17:39:23.966Z,53.17
2022-12-18T17:41:50.519Z,53.80
2022-12-18T17:44:18.638Z,52.13
2022-12-18T17:46:46.338Z,47.47
2022-12-18T17:49:12.945Z,50.77
2022-12-18T17:51:41.935Z,47.97
2022-12-18T17:54:08.649Z,43.77
2022-12-18T17:56:35.130Z,35.13
2022-12-18T17:59:02.432Z,31.73
2022-12-18T18:01:28.989Z,34.13
2022-12-18T18:04:00.333Z,31.47
2022-12-18T18:06:27.006Z,32.50
2022-12-18T18:08:53.811Z,32.53
2022-12-18T18:11:39.966Z,33.33
2022-12-18T18:14:07.367Z,32.43
2022-12-18T18:16:35.224Z,32.97
2022-12-18T18:19:02.243Z,35.17
2022-12-18T18:21:28.794Z,36.77
2022-12-18T18:23:55.858Z,34.13
2022-12-18T18:26:22.547Z,36.07
2022-12-18T18:28:53.914Z,32.93
2022-12-18T18:31:21.027Z,33.43
2022-12-18T18:33:47.665Z,32.27
2022-12-18T18:36:14.580Z,34.53
2022-12-18T18:38:45.390Z,31.23
2022-12-18T18:41:14.745Z,34.47
2022-12-18T18:43:41.534Z,33.60
2022-12-18T18:46:09.572Z,33.07
2022-12-18T18:48:37.391Z,36.90
2022-12-18T18:51:06.019Z,37.60
2022-12-18T18:53:35.726Z,35.53
2022-12-18T18:56:34.833Z,34.03
2022-12-18T18:58:48.808Z,32.60
2022-12-18T19:01:16.302Z,33.60
2022-12-18T19:03:43.148Z,32.93
2022-12-18T19:06:11.484Z,32.87
2022-12-18T19:08:38.671Z,30.90
2022-12-18T19:11:26.320Z,30.30
2022-12-18T19:13:52.941Z,32.57
2022-12-18T19:16:19.561Z,34.17
2022-12-18T19:18:46.224Z,33.90
2022-12-18T19:21:12.924Z,32.70
2022-12-18T19:23:39.380Z,34.00
2022-12-18T19:26:28.871Z,30.37
2022-12-18T19:28:52.677Z,29.80
2022-12-18T19:31:24.852Z,28.77
2022-12-18T19:33:52.676Z,31.67
2022-12-18T19:36:28.746Z,29.30
2022-12-18T19:38:56.080Z,28.23
2022-12-18T19:41:22.937Z,33.47
2022-12-18T19:43:49.805Z,30.70
2022-12-18T19:46:17.344Z,30.83
2022-12-18T19:48:45.088Z,30.87
2022-12-18T19:51:13.670Z,30.13
2022-12-18T19:53:40.634Z,30.00
2022-12-18T19:56:08.018Z,26.77
2022-12-18T19:58:34.613Z,32.80
2022-12-18T20:01:01.279Z,27.43
2022-12-18T20:03:32.504Z,29.07
2022-12-18T20:06:12.631Z,27.13
2022-12-18T20:08:39.407Z,26.40
2022-12-18T20:11:05.915Z,27.63
2022-12-18T20:13:32.471Z,23.33
2022-12-18T20:15:59.355Z,26.53
2022-12-18T20:18:26.131Z,27.50
2022-12-18T20:20:53.086Z,26.77
2022-12-18T20:23:22.802Z,27.63
2022-12-18T20:25:49.541Z,29.20
2022-12-18T20:28:16.041Z,30.87
2022-12-18T20:30:42.488Z,31.03
2022-12-18T20:33:09.251Z,32.60
2022-12-18T20:35:35.694Z,31.93
2022-12-18T20:38:02.663Z,32.50
2022-12-18T20:40:30.935Z,32.40
2022-12-18T20:42:57.453Z,30.80
2022-12-18T20:45:23.959Z,31.03
2022-12-18T20:47:50.435Z,33.10
2022-12-18T20:50:17.002Z,35.93
2022-12-18T20:52:43.492Z,33.67
2022-12-18T20:55:10.137Z,30.43
2022-12-18T20:57:36.875Z,28.53
2022-12-18T21:00:05.328Z,28.90
2022-12-18T21:02:32.052Z,28.47
2022-12-18T21:04:59.199Z,27.03
2022-12-18T21:07:27.440Z,26.63
2022-12-18T21:09:54.238Z,25.67
2022-12-18T21:12:44.024Z,28.20
2022-12-18T21:15:14.982Z,26.40
2022-12-18T21:17:44.791Z,27.33
2022-12-18T21:20:17.487Z,22.50
2022-12-18T21:22:45.064Z,24.50
2022-12-18T21:25:11.563Z,24.57
2022-12-18T21:27:38.146Z,25.97
2022-12-18T21:30:04.838Z,24.87
2022-12-18T21:32:33.414Z,24.93
2022-12-18T21:35:00.295Z,24.23
2022-12-18T21:37:26.818Z,22.80
2022-12-18T21:39:53.340Z,23.77
2022-12-18T21:42:38.658Z,23.70
2022-12-18T21:45:05.274Z,23.23
2022-12-18T21:47:31.761Z,24.63
2022-12-18T21:49:58.257Z,24.37
2022-12-18T21:52:32.196Z,22.03
2022-12-18T21:55:04.571Z,25.30
2022-12-18T21:57:34.736Z,24.33
2022-12-18T22:00:02.263Z,24.27
2022-12-18T22:02:29.299Z,24.13
2022-12-18T22:04:55.968Z,23.80
2022-12-18T22:07:23.086Z,25.27
2022-12-18T22:09:50.674Z,23.40
2022-12-18T22:12:35.452Z,24.10
2022-12-18T22:15:03.863Z,24.37
2022-12-18T22:17:30.354Z,25.23
2022-12-18T22:19:57.241Z,26.40
2022-12-18T22:22:23.974Z,25.13
2022-12-18T22:24:50.478Z,22.87
2022-12-18T22:27:16.962Z,26.60
2022-12-18T22:30:02.386Z,24.40
2022-12-18T22:32:31.366Z,26.57
2022-12-18T22:35:06.905Z,23.27
2022-12-18T22:37:35.836Z,23.43
2022-12-18T22:40:04.013Z,25.57
2022-12-18T22:42:31.165Z,22.80
2022-12-18T22:44:57.679Z,26.60
2022-12-18T22:47:29.214Z,24.80
2022-12-18T22:49:56.105Z,25.47
2022-12-18T22:52:24.830Z,24.60
2022-12-18T22:54:53.268Z,23.33
2022-12-18T22:57:20.700Z,23.87
2022-12-18T22:59:47.146Z,26.50
2022-12-18T23:02:13.768Z,27.80
2022-12-18T23:04:40.306Z,24.93
2022-12-18T23:07:07.192Z,26.23
2022-12-18T23:09:33.759Z,27.37
2022-12-18T23:12:00.243Z,22.93
2022-12-18T23:14:26.991Z,25.20
2022-12-18T23:16:53.467Z,23.93
2022-12-18T23:19:20.227Z,23.43
2022-12-18T23:21:46.760Z,24.17
2022-12-18T23:24:13.673Z,24.63
2022-12-18T23:26:40.135Z,25.30
2022-12-18T23:29:06.638Z,21.93
2022-12-18T23:31:34.139Z,25.17
2022-12-18T23:34:01.018Z,22.87
2022-12-18T23:36:27.547Z,22.90
2022-12-18T23:38:55.983Z,24.67
2022-12-18T23:41:23.014Z,22.50
2022-12-18T23:43:49.465Z,22.57
2022-12-18T23:46:20.128Z,23.47
2022-12-18T23:48:46.748Z,22.67
2022-12-18T23:51:13.915Z,23.43
2022-12-18T23:53:40.460Z,21.33
2022-12-18T23:56:07.058Z,22.83
2022-12-18T23:58:34.305Z,22.70
